Time;durP1;ratioP1;P1;durP2;ratioP2;P2;SDS_P1;SDS_P2;PMS_P1;PMS_P2;Temp;Humidity;BMP_temperature;BMP_pressure;BME280_temperature;BME280_humidity;BME280_pressure;Samples;Min_cycle;Max_cycle;Signal;HPM_P1;HPM_P2
2022/07/25 00:00:04;;;;;;;16.58;14.98;;;19.90;99.90;;;;;;5094113;28;20204;-73
2022/07/25 00:02:31;;;;;;;15.55;14.15;;;19.90;99.90;;;;;;5094119;28;20204;-72
2022/07/25 00:04:57;;;;;;;15.48;13.98;;;19.80;99.90;;;;;;5093877;28;20670;-72
2022/07/25 00:07:24;;;;;;;15.75;14.27;;;19.70;99.90;;;;;;5093781;28;20277;-72
2022/07/25 00:09:50;;;;;;;15.43;13.90;;;19.70;99.90;;;;;;5093632;28;20208;-72
2022/07/25 00:12:17;;;;;;;16.35;14.80;;;19.50;99.90;;;;;;5094003;28;20333;-72
2022/07/25 00:14:44;;;;;;;17.33;14.15;;;19.50;99.90;;;;;;5093924;28;20207;-72
2022/07/25 00:17:12;;;;;;;16.13;14.63;;;19.30;99.90;;;;;;5093596;28;20571;-72
2022/07/25 00:19:39;;;;;;;16.05;14.00;;;19.30;99.90;;;;;;5093717;28;20192;-72
2022/07/25 00:22:06;;;;;;;15.88;14.48;;;19.50;99.90;;;;;;5093627;28;20200;-72
2022/07/25 00:24:33;;;;;;;15.98;14.32;;;19.50;99.90;;;;;;5093637;28;20204;-70
2022/07/25 00:26:59;;;;;;;16.13;14.02;;;19.50;99.90;;;;;;5093582;28;20204;-71
2022/07/25 00:29:26;;;;;;;17.02;15.35;;;19.40;99.90;;;;;;5093522;28;20242;-72
2022/07/25 00:31:52;;;;;;;16.17;14.68;;;19.30;99.90;;;;;;5093623;28;20245;-71
2022/07/25 00:34:20;;;;;;;17.58;14.23;;;19.30;99.90;;;;;;5093633;28;20197;-72
2022/07/25 00:36:47;;;;;;;17.08;14.55;;;19.40;99.90;;;;;;5093366;28;20258;-72
2022/07/25 00:39:14;;;;;;;16.58;14.95;;;19.30;99.90;;;;;;5093240;28;20240;-72
2022/07/25 00:41:40;;;;;;;16.23;14.63;;;19.30;99.90;;;;;;5093593;28;20660;-72
2022/07/25 00:44:07;;;;;;;16.58;14.88;;;19.20;99.90;;;;;;5093442;28;20249;-72
2022/07/25 00:46:37;;;;;;;16.70;14.77;;;19.10;99.90;;;;;;5093178;28;20201;-72
2022/07/25 00:49:04;;;;;;;15.55;14.15;;;19.10;99.90;;;;;;5093154;28;20228;-72
2022/07/25 00:51:32;;;;;;;17.70;15.63;;;19.00;99.90;;;;;;5093117;28;20265;-72
2022/07/25 00:53:58;;;;;;;15.95;14.45;;;19.00;99.90;;;;;;5092498;28;20199;-72
2022/07/25 00:56:25;;;;;;;17.55;14.55;;;19.00;99.90;;;;;;5093252;28;20208;-72
2022/07/25 00:58:52;;;;;;;15.90;14.40;;;18.90;99.90;;;;;;5093190;28;20196;-72
2022/07/25 01:01:18;;;;;;;16.60;15.00;;;18.80;99.90;;;;;;5093148;28;20200;-72
2022/07/25 01:03:45;;;;;;;17.00;15.30;;;18.70;99.90;;;;;;5093133;28;20253;-72
2022/07/25 01:06:12;;;;;;;16.58;14.98;;;18.80;99.90;;;;;;5092918;28;20208;-72
2022/07/25 01:08:40;;;;;;;17.27;14.95;;;18.80;99.90;;;;;;5093073;28;20223;-71
2022/07/25 01:11:08;;;;;;;15.55;14.07;;;18.90;99.90;;;;;;5093046;28;20193;-72
2022/07/25 01:13:34;;;;;;;16.27;14.75;;;18.80;99.90;;;;;;5093043;28;20233;-71
2022/07/25 01:16:01;;;;;;;17.60;15.60;;;18.70;99.90;;;;;;5092951;28;20258;-72
2022/07/25 01:18:28;;;;;;;17.02;15.45;;;18.70;99.90;;;;;;5092900;28;20257;-72
2022/07/25 01:20:56;;;;;;;17.27;14.70;;;18.70;99.90;;;;;;5092793;28;20625;-72
2022/07/25 01:23:22;;;;;;;17.52;15.35;;;18.70;99.90;;;;;;5092946;28;20287;-72
2022/07/25 01:25:49;;;;;;;17.27;14.98;;;18.80;99.90;;;;;;5092942;28;20241;-72
2022/07/25 01:28:17;;;;;;;16.75;15.15;;;18.80;99.90;;;;;;5092771;28;20220;-72
2022/07/25 01:30:43;;;;;;;17.77;15.98;;;18.70;99.90;;;;;;5092854;28;20231;-72
2022/07/25 01:33:14;;;;;;;17.60;15.77;;;18.60;99.90;;;;;;5092679;28;20196;-72
2022/07/25 01:35:41;;;;;;;16.92;15.40;;;18.50;99.90;;;;;;5092948;28;20726;-72
2022/07/25 01:38:09;;;;;;;16.60;15.00;;;18.40;99.90;;;;;;5092903;28;20594;-72
2022/07/25 01:40:35;;;;;;;18.00;16.25;;;18.40;99.90;;;;;;5092524;28;20228;-72
2022/07/25 01:43:02;;;;;;;18.83;16.95;;;18.40;99.90;;;;;;5092698;28;20200;-72
2022/07/25 01:45:28;;;;;;;18.45;16.40;;;18.40;99.90;;;;;;5092643;28;20200;-72
2022/07/25 01:47:55;;;;;;;17.33;15.63;;;18.40;99.90;;;;;;5092868;28;20228;-72
2022/07/25 01:50:22;;;;;;;17.55;15.15;;;18.40;99.90;;;;;;5092622;28;20212;-72
2022/07/25 01:52:48;;;;;;;16.92;15.38;;;18.40;99.90;;;;;;5092740;28;20266;-72
2022/07/25 01:55:18;;;;;;;18.20;16.23;;;18.40;99.90;;;;;;5092601;28;20706;-72
2022/07/25 01:57:45;;;;;;;19.77;16.08;;;18.20;99.90;;;;;;5092574;28;20196;-72
2022/07/25 02:00:13;;;;;;;18.17;16.27;;;18.30;99.90;;;;;;5092347;28;20663;-72
2022/07/25 02:02:40;;;;;;;17.60;15.77;;;18.20;99.90;;;;;;5092397;28;20193;-72
2022/07/25 02:05:07;;;;;;;17.67;15.90;;;18.20;99.90;;;;;;5093757;28;20648;-72
2022/07/25 02:07:34;;;;;;;18.25;16.42;;;18.20;99.90;;;;;;5096181;28;20197;-72
2022/07/25 02:10:01;;;;;;;18.20;16.40;;;18.30;99.90;;;;;;5096236;28;20254;-72
2022/07/25 02:12:29;;;;;;;18.90;16.90;;;18.30;99.90;;;;;;5096152;28;20254;-72
2022/07/25 02:14:56;;;;;;;19.15;16.95;;;18.30;99.90;;;;;;5096065;28;20204;-72
2022/07/25 02:17:23;;;;;;;20.50;17.20;;;18.30;99.90;;;;;;5096263;28;20204;-72
2022/07/25 02:19:49;;;;;;;19.23;17.42;;;18.30;99.90;;;;;;5096145;28;20204;-72
2022/07/25 02:22:16;;;;;;;19.05;17.15;;;18.20;99.90;;;;;;5096033;28;20196;-72
2022/07/25 02:24:43;;;;;;;19.30;17.30;;;18.30;99.90;;;;;;5095976;28;20254;-72
2022/07/25 02:27:10;;;;;;;19.33;17.35;;;18.20;99.90;;;;;;5095859;28;20226;-72
2022/07/25 02:29:37;;;;;;;21.50;19.33;;;18.10;99.90;;;;;;5095915;28;20232;-72
2022/07/25 02:32:05;;;;;;;22.67;20.35;;;18.20;99.90;;;;;;5095972;28;20201;-72
2022/07/25 02:34:32;;;;;;;25.70;21.45;;;18.20;99.90;;;;;;5095685;28;20695;-72
2022/07/25 02:36:58;;;;;;;23.38;20.83;;;18.20;99.90;;;;;;5095772;28;20257;-72
2022/07/25 02:39:25;;;;;;;26.73;22.73;;;18.20;99.90;;;;;;5095576;28;20752;-72
2022/07/25 02:41:51;;;;;;;23.90;20.70;;;18.10;99.90;;;;;;5095640;28;20200;-72
2022/07/25 02:44:18;;;;;;;29.00;22.48;;;18.20;99.90;;;;;;5095795;28;20204;-72
2022/07/25 02:46:46;;;;;;;24.27;21.27;;;18.10;99.90;;;;;;5095645;28;20200;-72
2022/07/25 02:49:13;;;;;;;25.15;21.20;;;18.00;99.90;;;;;;5095417;28;20572;-72
2022/07/25 02:51:39;;;;;;;22.38;18.95;;;18.00;99.90;;;;;;5095524;28;20200;-72
2022/07/25 02:54:06;;;;;;;19.88;17.48;;;18.10;99.90;;;;;;5095345;28;20193;-72
2022/07/25 02:56:32;;;;;;;21.85;19.30;;;17.90;99.90;;;;;;5095236;28;20241;-72
2022/07/25 02:58:59;;;;;;;22.70;19.80;;;17.90;99.90;;;;;;5095468;28;20283;-72
2022/07/25 03:01:26;;;;;;;26.17;21.73;;;17.80;99.90;;;;;;5095387;28;20230;-72
2022/07/25 03:03:54;;;;;;;28.20;22.05;;;17.80;99.90;;;;;;5095415;28;20205;-72
2022/07/25 03:06:21;;;;;;;32.70;24.38;;;17.80;99.90;;;;;;5095292;28;20203;-72
2022/07/25 03:08:47;;;;;;;36.65;28.48;;;17.90;99.90;;;;;;5094973;28;20344;-71
2022/07/25 03:11:15;;;;;;;37.97;28.00;;;17.80;99.90;;;;;;5094972;28;20196;-72
2022/07/25 03:13:42;;;;;;;32.72;23.27;;;17.80;99.90;;;;;;5095122;28;20196;-72
2022/07/25 03:16:09;;;;;;;27.17;18.70;;;17.90;99.90;;;;;;5094119;28;20660;-72
2022/07/25 03:18:35;;;;;;;21.35;19.08;;;17.90;99.90;;;;;;5094784;28;20561;-72
2022/07/25 03:21:04;;;;;;;23.13;18.08;;;17.80;99.90;;;;;;5094832;28;20204;-72
2022/07/25 03:23:30;;;;;;;19.08;17.13;;;17.90;99.90;;;;;;5094682;28;20234;-72
2022/07/25 03:25:57;;;;;;;19.15;17.20;;;17.90;99.90;;;;;;5094845;28;20254;-72
2022/07/25 03:28:24;;;;;;;18.02;16.30;;;17.80;99.90;;;;;;5094540;28;20682;-73
2022/07/25 03:30:51;;;;;;;18.60;16.25;;;17.80;99.90;;;;;;5094715;28;20200;-72
2022/07/25 03:33:17;;;;;;;20.63;16.83;;;17.80;99.90;;;;;;5094665;28;20246;-72
2022/07/25 03:35:45;;;;;;;19.27;17.15;;;17.80;99.90;;;;;;5094526;28;20196;-72
2022/07/25 03:38:13;;;;;;;18.45;16.58;;;17.80;99.90;;;;;;5094418;28;20269;-72
2022/07/25 03:40:40;;;;;;;19.38;17.45;;;17.80;99.90;;;;;;5094325;28;20631;-72
2022/07/25 03:43:06;;;;;;;19.13;17.35;;;17.70;99.90;;;;;;5094490;28;20196;-72
2022/07/25 03:45:33;;;;;;;19.48;17.58;;;17.70;99.90;;;;;;5094495;28;20286;-72
2022/07/25 03:48:00;;;;;;;20.23;17.60;;;17.60;99.90;;;;;;5094302;28;20196;-72
2022/07/25 03:50:26;;;;;;;19.20;17.33;;;17.50;99.90;;;;;;5094306;28;20196;-72
2022/07/25 03:52:53;;;;;;;20.33;17.58;;;17.50;99.90;;;;;;5094085;28;20203;-73
2022/07/25 03:55:21;;;;;;;19.60;17.70;;;17.50;99.90;;;;;;5094298;28;20200;-71
2022/07/25 03:57:47;;;;;;;20.45;17.63;;;17.50;99.90;;;;;;5093913;28;20647;-71
2022/07/25 04:00:15;;;;;;;20.77;18.75;;;17.60;99.90;;;;;;5094241;28;20249;-72
2022/07/25 04:02:41;;;;;;;21.90;19.60;;;17.60;99.90;;;;;;5093984;28;20200;-72
2022/07/25 04:05:09;;;;;;;28.65;23.02;;;17.70;99.90;;;;;;5093917;28;20200;-71
2022/07/25 04:07:36;;;;;;;32.22;23.65;;;17.70;99.90;;;;;;5094048;28;20200;-72
2022/07/25 04:10:03;;;;;;;31.27;22.92;;;17.80;99.90;;;;;;5093567;28;20675;-72
2022/07/25 04:12:31;;;;;;;32.50;22.48;;;17.80;99.90;;;;;;5093980;28;20253;-72
2022/07/25 04:14:58;;;;;;;24.95;20.90;;;17.80;99.90;;;;;;5093795;28;20662;-72
2022/07/25 04:17:24;;;;;;;28.38;21.52;;;17.80;99.90;;;;;;5093615;28;20196;-72
2022/07/25 04:19:51;;;;;;;28.27;21.05;;;17.90;99.90;;;;;;5093734;28;20246;-71
2022/07/25 04:22:18;;;;;;;27.83;21.45;;;17.90;99.90;;;;;;5093727;28;20196;-72
2022/07/25 04:24:44;;;;;;;30.80;22.02;;;18.00;99.90;;;;;;5093936;28;20203;-72
2022/07/25 04:27:11;;;;;;;28.20;21.67;;;18.10;99.90;;;;;;5093821;28;20200;-72
2022/07/25 04:29:39;;;;;;;31.05;22.88;;;18.10;99.90;;;;;;5093461;28;20224;-72
2022/07/25 04:32:06;;;;;;;33.40;24.10;;;18.10;99.90;;;;;;5093460;28;20193;-71
2022/07/25 04:34:33;;;;;;;32.90;23.80;;;18.20;99.90;;;;;;5093320;28;20277;-72
2022/07/25 04:36:59;;;;;;;31.55;23.42;;;18.30;99.90;;;;;;5093344;28;20253;-71
2022/07/25 04:39:26;;;;;;;25.50;20.85;;;18.30;99.90;;;;;;5093323;28;20239;-72
2022/07/25 04:41:53;;;;;;;29.48;20.42;;;18.40;99.90;;;;;;5093151;28;20627;-72
2022/07/25 04:44:19;;;;;;;25.17;20.40;;;18.40;99.90;;;;;;5093302;28;20192;-72
2022/07/25 04:46:47;;;;;;;22.83;19.42;;;18.50;99.90;;;;;;5093092;28;20601;-72
2022/07/25 04:49:14;;;;;;;21.30;18.38;;;18.60;99.90;;;;;;5093075;28;20224;-72
2022/07/25 04:51:40;;;;;;;22.30;18.30;;;18.60;99.90;;;;;;5093298;28;20200;-71
2022/07/25 04:54:08;;;;;;;20.77;18.05;;;18.70;99.90;;;;;;5093347;28;20196;-71
2022/07/25 04:56:34;;;;;;;22.17;17.90;;;18.80;99.90;;;;;;5093082;28;20671;-71
2022/07/25 04:59:01;;;;;;;19.02;17.13;;;18.90;99.90;;;;;;5093031;28;20656;-71
2022/07/25 05:01:28;;;;;;;19.35;17.42;;;18.90;99.90;;;;;;5093017;28;20196;-71
2022/07/25 05:03:55;;;;;;;19.45;16.35;;;19.00;99.90;;;;;;5093193;28;20229;-71
2022/07/25 05:06:22;;;;;;;19.00;17.15;;;19.10;99.90;;;;;;5093126;28;20196;-71
2022/07/25 05:08:49;;;;;;;18.23;16.42;;;19.20;99.90;;;;;;5092941;28;20220;-71
2022/07/25 05:11:15;;;;;;;20.10;17.92;;;19.30;99.90;;;;;;5092852;28;20753;-71
2022/07/25 05:13:42;;;;;;;18.35;16.52;;;19.40;99.90;;;;;;5092854;28;20196;-72
2022/07/25 05:16:09;;;;;;;18.33;16.55;;;19.60;99.90;;;;;;5092782;28;20196;-71
2022/07/25 05:18:35;;;;;;;20.13;16.27;;;19.70;99.90;;;;;;5093084;28;20245;-72
2022/07/25 05:21:03;;;;;;;19.10;16.92;;;19.70;99.90;;;;;;5092897;28;20200;-71
2022/07/25 05:23:30;;;;;;;19.65;17.65;;;19.80;99.90;;;;;;5092877;28;20204;-71
2022/07/25 05:25:56;;;;;;;19.55;17.52;;;20.00;99.90;;;;;;5092657;28;20200;-71
2022/07/25 05:28:23;;;;;;;18.90;17.00;;;20.10;99.90;;;;;;5092518;28;20196;-71
2022/07/25 05:30:50;;;;;;;18.60;16.77;;;20.20;99.90;;;;;;5092629;28;20224;-71
2022/07/25 05:33:16;;;;;;;18.40;16.63;;;20.40;99.90;;;;;;5092641;28;20225;-71
2022/07/25 05:35:43;;;;;;;18.42;16.63;;;20.50;99.90;;;;;;5092941;28;20250;-71
2022/07/25 05:38:11;;;;;;;17.05;15.25;;;20.70;99.90;;;;;;5092751;28;20532;-71
2022/07/25 05:40:37;;;;;;;19.15;17.15;;;20.80;99.90;;;;;;5094706;28;20220;-71
2022/07/25 05:43:04;;;;;;;18.70;16.80;;;20.90;99.90;;;;;;5096388;28;20251;-71
2022/07/25 05:45:31;;;;;;;19.58;16.85;;;21.00;99.90;;;;;;5096523;28;20196;-71
2022/07/25 05:47:57;;;;;;;18.45;16.52;;;21.10;99.90;;;;;;5096473;28;20258;-72
2022/07/25 05:50:24;;;;;;;19.65;16.38;;;21.20;99.90;;;;;;5096327;28;20274;-71
2022/07/25 05:52:51;;;;;;;19.50;17.40;;;21.40;99.90;;;;;;5096146;28;20196;-70
2022/07/25 05:55:19;;;;;;;18.60;16.25;;;21.50;99.90;;;;;;5096028;28;20192;-71
2022/07/25 05:57:46;;;;;;;19.00;16.15;;;21.60;99.90;;;;;;5095982;28;20196;-71
2022/07/25 06:00:13;;;;;;;18.58;16.67;;;21.80;99.90;;;;;;5096328;28;20279;-71
2022/07/25 06:02:40;;;;;;;17.52;15.70;;;21.90;99.90;;;;;;5096224;28;20196;-71
2022/07/25 06:05:07;;;;;;;17.52;15.68;;;22.00;99.90;;;;;;5096135;28;20246;-71
2022/07/25 06:07:33;;;;;;;16.15;14.55;;;22.10;99.90;;;;;;5096194;28;20197;-71
2022/07/25 06:10:00;;;;;;;16.13;14.63;;;22.20;99.90;;;;;;5095980;28;20626;-72
2022/07/25 06:12:28;;;;;;;17.52;15.80;;;22.40;99.90;;;;;;5095900;28;20200;-72
2022/07/25 06:14:54;;;;;;;15.40;13.80;;;22.50;99.90;;;;;;5096191;28;20201;-71
2022/07/25 06:17:21;;;;;;;15.88;14.30;;;22.60;99.90;;;;;;5095730;28;20200;-73
2022/07/25 06:19:48;;;;;;;15.02;13.48;;;22.70;99.90;;;;;;5095923;28;20245;-79
2022/07/25 06:22:14;;;;;;;16.38;14.70;;;22.90;99.90;;;;;;5095826;28;20246;-73
2022/07/25 06:24:41;;;;;;;14.60;13.10;;;23.00;99.90;;;;;;5095692;28;20200;-73
2022/07/25 06:27:08;;;;;;;13.75;12.52;;;23.20;99.90;;;;;;5095886;28;20204;-73
2022/07/25 06:29:37;;;;;;;13.80;12.50;;;23.30;99.90;;;;;;5095964;28;20219;-72
2022/07/25 06:32:04;;;;;;;14.90;12.18;;;23.50;99.90;;;;;;5095774;28;20246;-73
2022/07/25 06:34:31;;;;;;;13.52;12.07;;;23.60;99.90;;;;;;5095568;28;20207;-73
2022/07/25 06:36:58;;;;;;;13.60;11.77;;;23.70;99.90;;;;;;5095698;28;20200;-79
2022/07/25 06:39:24;;;;;;;13.18;11.85;;;23.90;99.90;;;;;;5078956;28;20634;-79
2022/07/25 06:41:51;;;;;;;18.20;11.35;;;24.00;99.90;;;;;;5091755;28;20196;-80
2022/07/25 06:44:18;;;;;;;13.85;12.27;;;24.20;99.90;;;;;;5095628;28;20200;-80
2022/07/25 06:46:46;;;;;;;13.35;12.15;;;24.30;99.90;;;;;;5095181;28;20610;-80
2022/07/25 06:49:12;;;;;;;12.60;11.40;;;24.40;99.90;;;;;;5095137;28;20196;-80
2022/07/25 06:51:39;;;;;;;13.73;11.30;;;24.60;99.90;;;;;;5093990;28;20246;-80
2022/07/25 06:54:06;;;;;;;12.88;11.65;;;24.70;99.90;;;;;;5095164;28;20196;-80
2022/07/25 06:56:32;;;;;;;12.10;10.93;;;24.80;99.90;;;;;;5095062;28;20652;-80
2022/07/25 06:58:59;;;;;;;12.15;11.05;;;25.00;99.90;;;;;;5095076;28;20191;-81
2022/07/25 07:01:26;;;;;;;12.52;11.23;;;25.10;99.90;;;;;;5094952;28;20207;-81
2022/07/25 07:03:54;;;;;;;12.93;11.73;;;25.20;99.90;;;;;;5094912;28;20210;-81
2022/07/25 07:06:21;;;;;;;12.68;11.35;;;25.30;99.90;;;;;;5094875;28;20200;-81
2022/07/25 07:08:47;;;;;;;12.82;11.57;;;25.40;99.90;;;;;;5094781;28;20200;-80
2022/07/25 07:11:15;;;;;;;11.68;10.57;;;25.50;99.90;;;;;;5094733;28;20485;-80
2022/07/25 07:13:42;;;;;;;11.85;10.70;;;25.60;99.90;;;;;;5094811;28;20200;-80
2022/07/25 07:16:09;;;;;;;11.82;10.82;;;25.70;99.90;;;;;;5094766;28;20197;-80
2022/07/25 07:18:36;;;;;;;11.13;10.02;;;25.80;99.90;;;;;;5094578;28;20204;-81
2022/07/25 07:21:04;;;;;;;11.07;10.18;;;25.90;99.90;;;;;;5094588;28;20204;-80
2022/07/25 07:23:31;;;;;;;11.32;10.32;;;26.00;99.90;;;;;;5094800;28;20200;-80
2022/07/25 07:25:57;;;;;;;11.63;10.60;;;26.10;99.90;;;;;;5094650;28;20732;-80
2022/07/25 07:28:24;;;;;;;12.35;11.13;;;26.20;99.90;;;;;;5094531;28;20196;-81
2022/07/25 07:30:51;;;;;;;11.35;10.23;;;26.40;99.90;;;;;;5094456;28;20224;-80
2022/07/25 07:33:17;;;;;;;10.70;9.70;;;26.40;99.90;;;;;;5094467;28;20200;-81
2022/07/25 07:35:44;;;;;;;15.15;10.05;;;26.50;99.90;;;;;;5094028;28;20594;-80
2022/07/25 07:38:12;;;;;;;11.40;10.38;;;26.70;99.90;;;;;;5094251;28;20671;-81
2022/07/25 07:40:39;;;;;;;12.60;10.63;;;26.80;99.90;;;;;;5094242;28;20231;-81
2022/07/25 07:43:05;;;;;;;12.60;10.40;;;26.90;99.90;;;;;;5094037;28;20265;-80
2022/07/25 07:45:32;;;;;;;11.82;10.80;;;27.00;99.90;;;;;;5094183;28;20201;-81
2022/07/25 07:47:59;;;;;;;13.52;10.95;;;27.10;99.90;;;;;;5093965;28;20200;-80
2022/07/25 07:50:28;;;;;;;13.25;10.90;;;27.20;99.90;;;;;;5094034;28;20285;-81
2022/07/25 07:52:57;;;;;;;11.55;10.45;;;27.40;99.90;;;;;;5094266;28;20211;-79
2022/07/25 07:58:10;;;;;;;11.00;10.00;;;27.60;99.90;;;;;;5094015;28;20195;-80
2022/07/25 08:00:38;;;;;;;12.48;11.18;;;27.80;99.90;;;;;;5093947;28;20192;-79
2022/07/25 08:03:06;;;;;;;11.07;10.15;;;27.90;99.90;;;;;;5093889;28;20283;-80
2022/07/25 08:05:35;;;;;;;11.30;10.30;;;27.90;99.90;;;;;;5094011;28;20639;-80
2022/07/25 08:08:02;;;;;;;10.85;9.75;;;27.90;99.90;;;;;;5093816;28;20196;-79
2022/07/25 08:10:32;;;;;;;14.55;11.02;;;28.00;99.90;;;;;;5093554;28;20587;-80
2022/07/25 08:12:59;;;;;;;11.40;10.32;;;28.00;99.90;;;;;;5093543;28;20192;-80
2022/07/25 08:15:26;;;;;;;11.45;10.43;;;28.40;99.90;;;;;;5093440;28;20559;-80
2022/07/25 08:17:53;;;;;;;11.85;10.68;;;28.50;99.90;;;;;;5093750;28;20192;-80
2022/07/25 08:20:22;;;;;;;12.10;11.00;;;28.60;99.60;;;;;;5093539;28;20249;-80
2022/07/25 08:22:49;;;;;;;11.45;10.38;;;28.70;99.50;;;;;;5093630;28;20289;-80
2022/07/25 08:25:18;;;;;;;11.70;10.60;;;28.70;99.60;;;;;;5093369;28;20222;-80
2022/07/25 08:27:46;;;;;;;11.85;10.77;;;28.80;99.00;;;;;;5093283;28;20215;-80
2022/07/25 08:30:15;;;;;;;11.88;10.75;;;28.80;98.80;;;;;;5093475;28;20224;-80
2022/07/25 08:32:50;;;;;;;11.88;10.85;;;28.80;98.90;;;;;;5093520;28;20201;-80
2022/07/25 08:35:18;;;;;;;11.57;10.57;;;28.90;98.10;;;;;;5093191;28;20203;-80
2022/07/25 08:37:44;;;;;;;11.93;10.75;;;29.00;97.80;;;;;;5093480;28;20196;-80
2022/07/25 08:40:12;;;;;;;12.40;11.40;;;29.10;97.60;;;;;;5093034;28;20231;-80
2022/07/25 08:42:39;;;;;;;11.88;10.75;;;29.40;96.80;;;;;;5093502;28;20196;-80
2022/07/25 08:45:09;;;;;;;11.98;10.95;;;29.70;96.70;;;;;;5093442;28;20255;-80
2022/07/25 08:47:36;;;;;;;11.93;10.73;;;30.00;95.40;;;;;;5093247;28;20554;-80
2022/07/25 08:50:05;;;;;;;12.88;10.68;;;30.10;93.70;;;;;;5093193;28;20216;-80
2022/07/25 08:52:34;;;;;;;11.65;10.55;;;30.10;92.80;;;;;;5092948;28;20204;-80
2022/07/25 08:55:01;;;;;;;12.18;11.07;;;30.30;92.10;;;;;;5093024;28;20224;-80
2022/07/25 08:57:27;;;;;;;11.70;10.63;;;30.60;91.00;;;;;;5093216;28;20244;-80
2022/07/25 08:59:57;;;;;;;11.45;10.55;;;30.80;90.30;;;;;;5092871;28;20206;-80
2022/07/25 09:02:25;;;;;;;10.88;9.82;;;30.70;83.80;;;;;;5093034;28;20204;-79
2022/07/25 09:04:52;;;;;;;10.75;9.85;;;31.00;84.00;;;;;;5092845;28;20192;-80
2022/07/25 09:07:29;;;;;;;11.88;10.70;;;31.10;81.90;;;;;;5092830;28;20250;-80
2022/07/25 09:09:56;;;;;;;11.88;10.68;;;31.10;80.30;;;;;;5092917;28;20196;-79
2022/07/25 09:12:25;;;;;;;11.90;10.68;;;31.20;80.30;;;;;;5092933;28;20200;-80
2022/07/25 09:14:52;;;;;;;10.88;9.98;;;31.20;77.10;;;;;;5092088;28;20201;-80
2022/07/25 09:17:19;;;;;;;10.98;10.00;;;31.00;77.90;;;;;;5092723;28;20675;-80
2022/07/25 09:19:53;;;;;;;10.98;9.93;;;31.10;75.80;;;;;;5092604;28;20787;-79
2022/07/25 09:22:20;;;;;;;11.27;10.23;;;31.30;73.40;;;;;;5093009;28;20200;-80
2022/07/25 09:24:46;;;;;;;11.50;10.50;;;31.40;73.80;;;;;;5092540;28;20661;-80
2022/07/25 09:27:13;;;;;;;11.50;10.18;;;31.30;73.90;;;;;;5092735;28;20204;-80
2022/07/25 09:29:42;;;;;;;11.65;10.50;;;31.30;72.80;;;;;;5092544;28;20203;-80
2022/07/25 09:32:17;;;;;;;11.55;10.55;;;31.80;72.50;;;;;;5092665;28;20228;-80
2022/07/25 09:34:46;;;;;;;12.23;11.00;;;31.90;71.50;;;;;;5092745;28;20196;-80
2022/07/25 09:37:17;;;;;;;11.15;10.23;;;32.00;70.30;;;;;;5092539;28;20654;-79
2022/07/25 09:39:47;;;;;;;12.10;9.90;;;32.10;69.20;;;;;;5092252;28;20778;-80
2022/07/25 09:42:16;;;;;;;11.05;9.93;;;32.20;67.30;;;;;;5092439;28;20200;-80
2022/07/25 09:44:43;;;;;;;11.35;10.35;;;32.60;64.90;;;;;;5092220;28;20655;-79
2022/07/25 09:47:11;;;;;;;11.23;10.32;;;32.30;62.90;;;;;;5092657;28;20257;-78
2022/07/25 09:49:40;;;;;;;10.43;9.48;;;32.70;60.80;;;;;;5089990;28;20284;-80
2022/07/25 09:52:07;;;;;;;10.48;9.45;;;33.10;58.20;;;;;;5071627;28;20232;-80
2022/07/25 09:54:36;;;;;;;10.82;9.75;;;33.00;57.70;;;;;;5071790;28;20204;-80
2022/07/25 09:57:02;;;;;;;11.55;10.45;;;33.10;57.80;;;;;;5072156;28;20201;-79
2022/07/25 09:59:29;;;;;;;10.88;10.07;;;33.50;56.60;;;;;;5072093;28;20656;-80
2022/07/25 10:02:04;;;;;;;10.63;9.48;;;33.40;55.90;;;;;;5071876;28;20205;-80
2022/07/25 10:04:47;;;;;;;10.23;9.38;;;33.90;55.20;;;;;;5072504;28;20584;-79
2022/07/25 10:07:19;;;;;;;9.93;8.90;;;34.10;52.90;;;;;;5077706;28;20219;-79
2022/07/25 10:09:49;;;;;;;10.02;9.18;;;33.70;48.50;;;;;;5076622;28;20596;-79
2022/07/25 10:12:20;;;;;;;8.75;8.07;;;33.50;46.00;;;;;;5083227;28;20273;-79
2022/07/25 10:15:06;;;;;;;9.77;8.80;;;34.20;44.70;;;;;;5079702;28;20199;-79
2022/07/25 10:17:33;;;;;;;9.65;8.85;;;34.60;44.80;;;;;;5080307;28;20200;-79
2022/07/25 10:20:00;;;;;;;9.98;9.18;;;33.90;45.20;;;;;;5077396;28;20246;-79
2022/07/25 10:22:37;;;;;;;9.35;8.45;;;34.00;44.70;;;;;;5077078;28;20202;-80
2022/07/25 10:25:12;;;;;;;9.57;8.73;;;34.10;44.20;;;;;;5079892;28;20192;-79
2022/07/25 10:27:43;;;;;;;10.20;9.30;;;33.80;44.60;;;;;;5079472;28;20230;-79
2022/07/25 10:30:19;;;;;;;10.23;9.27;;;34.30;44.20;;;;;;5088833;28;20305;-78
2022/07/25 10:32:50;;;;;;;9.88;9.07;;;34.80;43.10;;;;;;5076571;28;20304;-79
2022/07/25 10:35:17;;;;;;;12.07;9.18;;;35.50;42.90;;;;;;5084060;28;20191;-81
2022/07/25 10:37:45;;;;;;;9.80;9.00;;;36.00;41.60;;;;;;5083900;28;20195;-80
2022/07/25 10:40:28;;;;;;;9.02;8.13;;;35.00;40.90;;;;;;5080900;28;20299;-80
2022/07/25 10:43:02;;;;;;;8.98;8.15;;;34.60;40.70;;;;;;5080957;28;20550;-81
2022/07/25 10:45:41;;;;;;;9.75;8.95;;;34.30;41.00;;;;;;5088327;28;20269;-81
2022/07/25 10:48:09;;;;;;;9.32;8.50;;;34.10;40.80;;;;;;5085475;28;20196;-82
2022/07/25 10:50:46;;;;;;;9.80;9.00;;;35.30;39.50;;;;;;5101355;28;20277;-81
2022/07/25 10:53:13;;;;;;;9.25;8.35;;;36.30;39.10;;;;;;5075964;28;20196;-78
2022/07/25 10:55:41;;;;;;;9.40;8.38;;;37.00;38.00;;;;;;5097840;28;20221;-84
2022/07/25 10:58:08;;;;;;;9.13;8.43;;;38.20;36.50;;;;;;5107907;28;20623;-83
2022/07/25 11:00:34;;;;;;;8.82;8.13;;;39.00;35.40;;;;;;5103970;28;20196;-78
2022/07/25 11:03:01;;;;;;;9.32;8.52;;;39.20;33.80;;;;;;5101356;28;20613;-83
2022/07/25 11:05:29;;;;;;;10.07;8.82;;;39.40;32.30;;;;;;5102216;28;20257;-82
2022/07/25 11:07:56;;;;;;;9.35;8.55;;;39.90;31.30;;;;;;5097616;28;20227;-83
2022/07/25 11:10:27;;;;;;;10.57;9.65;;;38.10;31.70;;;;;;5096221;28;20195;-82
2022/07/25 11:12:56;;;;;;;10.13;9.32;;;37.40;32.90;;;;;;5095584;28;20337;-81
2022/07/25 11:15:23;;;;;;;8.73;8.02;;;37.60;31.60;;;;;;5095350;28;20265;-78
2022/07/25 11:17:52;;;;;;;9.60;8.68;;;37.60;30.30;;;;;;5079116;28;20196;-83
2022/07/25 11:20:19;;;;;;;9.05;8.25;;;37.40;31.10;;;;;;5075935;28;20200;-80
2022/07/25 11:22:52;;;;;;;8.20;7.50;;;37.50;31.30;;;;;;5081177;28;20230;-79
2022/07/25 11:25:21;;;;;;;8.15;7.45;;;37.70;28.00;;;;;;5075625;28;20671;-78
2022/07/25 11:27:55;;;;;;;7.70;7.18;;;38.00;27.90;;;;;;5074405;28;20283;-79
2022/07/25 11:30:23;;;;;;;7.97;7.18;;;37.10;27.40;;;;;;5074369;28;20200;-81
2022/07/25 11:32:52;;;;;;;8.15;7.50;;;37.30;27.90;;;;;;5074138;28;20293;-81
2022/07/25 11:35:22;;;;;;;7.40;6.70;;;37.00;27.70;;;;;;5074102;28;20192;-80
2022/07/25 11:37:50;;;;;;;7.75;6.70;;;37.10;27.80;;;;;;5073624;28;20287;-79
2022/07/25 11:40:18;;;;;;;8.35;7.65;;;37.10;27.20;;;;;;5074065;28;20260;-80
2022/07/25 11:42:47;;;;;;;7.65;6.97;;;37.20;27.10;;;;;;5073957;28;20261;-80
2022/07/25 11:45:18;;;;;;;7.78;7.18;;;38.40;25.90;;;;;;5074259;28;20193;-82
2022/07/25 11:47:47;;;;;;;7.25;6.75;;;37.20;27.20;;;;;;5074166;28;20250;-82
2022/07/25 11:50:14;;;;;;;7.47;6.88;;;37.40;25.70;;;;;;5074352;28;20250;-81
2022/07/25 11:52:44;;;;;;;7.85;7.15;;;38.20;25.40;;;;;;5073818;28;20726;-81
2022/07/25 11:55:13;;;;;;;8.25;7.65;;;39.70;24.70;;;;;;5073707;28;20732;-80
2022/07/25 11:57:44;;;;;;;7.55;6.85;;;39.10;26.50;;;;;;5073658;28;20203;-79
2022/07/25 12:00:16;;;;;;;6.80;6.30;;;39.40;24.40;;;;;;5073524;28;20291;-77
2022/07/25 12:02:44;;;;;;;6.50;5.80;;;38.60;22.90;;;;;;5073509;28;20546;-79
2022/07/25 12:05:14;;;;;;;6.10;5.68;;;38.80;22.70;;;;;;5073670;28;20200;-78
2022/07/25 12:07:44;;;;;;;6.63;6.00;;;38.60;22.30;;;;;;5073608;28;20205;-80
2022/07/25 12:10:15;;;;;;;6.50;6.00;;;39.60;21.80;;;;;;5073424;28;20279;-81
2022/07/25 12:12:43;;;;;;;5.68;5.28;;;40.80;21.10;;;;;;5073086;28;20722;-79
2022/07/25 12:15:12;;;;;;;6.03;5.43;;;39.30;20.60;;;;;;5073575;28;20269;-80
2022/07/25 12:17:39;;;;;;;6.68;6.07;;;38.10;21.20;;;;;;5073434;28;20231;-80
2022/07/25 12:20:14;;;;;;;5.68;5.20;;;39.00;20.30;;;;;;5073291;28;20242;-79
2022/07/25 12:22:41;;;;;;;5.32;4.93;;;38.30;20.70;;;;;;5073170;28;20231;-79
2022/07/25 12:25:09;;;;;;;5.60;5.00;;;39.10;19.20;;;;;;5072943;28;20197;-80
2022/07/25 12:27:36;;;;;;;5.38;4.97;;;38.60;19.20;;;;;;5073230;28;20258;-80
2022/07/25 12:30:03;;;;;;;5.30;4.80;;;38.50;19.30;;;;;;5073323;28;20250;-79
2022/07/25 12:32:30;;;;;;;5.78;5.35;;;38.50;19.50;;;;;;5073108;28;20225;-81
2022/07/25 12:34:57;;;;;;;5.88;5.45;;;39.00;19.90;;;;;;5073047;28;20200;-79